sensor_id;sensor_type;location;lat;lon;timestamp;pressure;altitude;pressure_sealevel;temperature;humidity
21779;BME280;11050;52.222;20.916;2022-10-23T00:01:41;100081.94;;;14.06;100.00
21779;BME280;11050;52.222;20.916;2022-10-23T00:04:15;100089.66;;;14.09;100.00
21779;BME280;11050;52.222;20.916;2022-10-23T00:06:41;100086.91;;;14.09;100.00
21779;BME280;11050;52.222;20.916;2022-10-23T00:09:11;100087.44;;;14.11;100.00
21779;BME280;11050;52.222;20.916;2022-10-23T00:11:38;100089.91;;;14.12;100.00
21779;BME280;11050;52.222;20.916;2022-10-23T00:14:06;100086.34;;;14.12;100.00
21779;BME280;11050;52.222;20.916;2022-10-23T00:16:33;100092.44;;;14.14;100.00
21779;BME280;11050;52.222;20.916;2022-10-23T00:18:59;100091.88;;;14.12;100.00
21779;BME280;11050;52.222;20.916;2022-10-23T00:21:25;100099.59;;;14.15;100.00
21779;BME280;11050;52.222;20.916;2022-10-23T00:23:52;100088.56;;;14.10;100.00
21779;BME280;11050;52.222;20.916;2022-10-23T00:26:18;100103.19;;;14.15;100.00
21779;BME280;11050;52.222;20.916;2022-10-23T00:28:48;100099.59;;;14.15;100.00
21779;BME280;11050;52.222;20.916;2022-10-23T00:31:16;100104.00;;;14.16;100.00
21779;BME280;11050;52.222;20.916;2022-10-23T00:33:42;100100.44;;;14.15;100.00
21779;BME280;11050;52.222;20.916;2022-10-23T00:36:12;100101.78;;;14.18;100.00
21779;BME280;11050;52.222;20.916;2022-10-23T00:38:38;100101.53;;;14.14;100.00
21779;BME280;11050;52.222;20.916;2022-10-23T00:41:07;100106.22;;;14.19;100.00
21779;BME280;11050;52.222;20.916;2022-10-23T00:43:34;100112.03;;;14.17;100.00
21779;BME280;11050;52.222;20.916;2022-10-23T00:46:00;100110.63;;;14.20;100.00
21779;BME280;11050;52.222;20.916;2022-10-23T00:48:27;100106.25;;;14.14;100.00
21779;BME280;11050;52.222;20.916;2022-10-23T00:50:54;100117.28;;;14.19;100.00
21779;BME280;11050;52.222;20.916;2022-10-23T00:53:20;100113.94;;;14.22;100.00
21779;BME280;11050;52.222;20.916;2022-10-23T00:55:49;100118.66;;;14.21;100.00
21779;BME280;11050;52.222;20.916;2022-10-23T00:58:19;100125.28;;;14.20;100.00
21779;BME280;11050;52.222;20.916;2022-10-23T01:03:16;100133.56;;;14.20;100.00
21779;BME280;11050;52.222;20.916;2022-10-23T01:08:53;100134.41;;;14.21;100.00
21779;BME280;11050;52.222;20.916;2022-10-23T01:11:41;100137.72;;;14.23;100.00
21779;BME280;11050;52.222;20.916;2022-10-23T01:14:29;100141.03;;;14.25;100.00
21779;BME280;11050;52.222;20.916;2022-10-23T01:31:57;100156.78;;;14.24;100.00
21779;BME280;11050;52.222;20.916;2022-10-23T01:34:51;100146.81;;;14.23;100.00
21779;BME280;11050;52.222;20.916;2022-10-23T01:37:31;100152.38;;;14.29;100.00
21779;BME280;11050;52.222;20.916;2022-10-23T01:40:04;100141.03;;;14.25;100.00
21779;BME280;11050;52.222;20.916;2022-10-23T01:42:42;100137.13;;;14.26;100.00
21779;BME280;11050;52.222;20.916;2022-10-23T01:45:20;100148.75;;;14.33;100.00
21779;BME280;11050;52.222;20.916;2022-10-23T01:47:49;100148.50;;;14.30;100.00
21779;BME280;11050;52.222;20.916;2022-10-23T01:50:17;100158.97;;;14.38;100.00
21779;BME280;11050;52.222;20.916;2022-10-23T01:52:45;100157.03;;;14.38;100.00
21779;BME280;11050;52.222;20.916;2022-10-23T01:55:13;100155.38;;;14.37;100.00
21779;BME280;11050;52.222;20.916;2022-10-23T01:57:43;100160.59;;;14.39;100.00
21779;BME280;11050;52.222;20.916;2022-10-23T02:00:14;100158.97;;;14.38;100.00
21779;BME280;11050;52.222;20.916;2022-10-23T02:02:42;100161.16;;;14.41;100.00
21779;BME280;11050;52.222;20.916;2022-10-23T02:05:21;100160.34;;;14.40;100.00
21779;BME280;11050;52.222;20.916;2022-10-23T02:07:50;100166.97;;;14.39;100.00
21779;BME280;11050;52.222;20.916;2022-10-23T02:10:16;100164.75;;;14.41;100.00
21779;BME280;11050;52.222;20.916;2022-10-23T02:16:19;100164.75;;;14.41;100.00
21779;BME280;11050;52.222;20.916;2022-10-23T02:18:50;100169.44;;;14.41;100.00
21779;BME280;11050;52.222;20.916;2022-10-23T02:21:40;100173.91;;;14.37;100.00
21779;BME280;11050;52.222;20.916;2022-10-23T02:24:15;100180.00;;;14.34;100.00
21779;BME280;11050;52.222;20.916;2022-10-23T02:26:51;100177.50;;;14.32;100.00
21779;BME280;11050;52.222;20.916;2022-10-23T02:29:34;100185.53;;;14.34;100.00
21779;BME280;11050;52.222;20.916;2022-10-23T02:32:06;100181.91;;;14.33;100.00
21779;BME280;11050;52.222;20.916;2022-10-23T02:34:34;100179.44;;;14.32;100.00
21779;BME280;11050;52.222;20.916;2022-10-23T02:37:01;100180.53;;;14.25;100.00
21779;BME280;11050;52.222;20.916;2022-10-23T02:39:27;100193.53;;;14.35;100.00
21779;BME280;11050;52.222;20.916;2022-10-23T02:42:32;100188.28;;;14.34;100.00
21779;BME280;11050;52.222;20.916;2022-10-23T02:48:02;100198.78;;;14.32;100.00
21779;BME280;11050;52.222;20.916;2022-10-23T02:54:06;100193.25;;;14.26;100.00
21779;BME280;11050;52.222;20.916;2022-10-23T02:57:00;100212.59;;;14.26;100.00
21779;BME280;11050;52.222;20.916;2022-10-23T02:59:42;100196.03;;;14.32;100.00
21779;BME280;11050;52.222;20.916;2022-10-23T03:02:29;100194.13;;;14.27;100.00
21779;BME280;11050;52.222;20.916;2022-10-23T03:04:59;100184.72;;;14.28;100.00
21779;BME280;11050;52.222;20.916;2022-10-23T03:07:26;100189.13;;;14.34;100.00
21779;BME280;11050;52.222;20.916;2022-10-23T03:09:52;100201.00;;;14.30;100.00
21779;BME280;11050;52.222;20.916;2022-10-23T03:12:17;100185.84;;;14.27;100.00
21779;BME280;11050;52.222;20.916;2022-10-23T03:14:43;100193.84;;;14.29;100.00
21779;BME280;11050;52.222;20.916;2022-10-23T03:17:09;100189.41;;;14.22;100.00
21779;BME280;11050;52.222;20.916;2022-10-23T03:19:35;100199.91;;;14.20;100.00
21779;BME280;11050;52.222;20.916;2022-10-23T03:22:00;100191.63;;;14.15;100.00
21779;BME280;11050;52.222;20.916;2022-10-23T03:24:26;100200.44;;;14.22;100.00
21779;BME280;11050;52.222;20.916;2022-10-23T03:26:52;100195.75;;;14.23;100.00
21779;BME280;11050;52.222;20.916;2022-10-23T03:29:18;100192.41;;;14.26;100.00
21779;BME280;11050;52.222;20.916;2022-10-23T03:31:43;100201.84;;;14.25;100.00
21779;BME280;11050;52.222;20.916;2022-10-23T03:34:09;100205.19;;;14.27;100.00
21779;BME280;11050;52.222;20.916;2022-10-23T03:36:36;100194.94;;;14.27;100.00
21779;BME280;11050;52.222;20.916;2022-10-23T03:39:02;100198.53;;;14.28;100.00
21779;BME280;11050;52.222;20.916;2022-10-23T03:41:29;100204.06;;;14.28;100.00
21779;BME280;11050;52.222;20.916;2022-10-23T03:43:55;100194.09;;;14.22;100.00
21779;BME280;11050;52.222;20.916;2022-10-23T03:46:21;100200.72;;;14.26;100.00
21779;BME280;11050;52.222;20.916;2022-10-23T03:48:47;100209.28;;;14.24;100.00
21779;BME280;11050;52.222;20.916;2022-10-23T03:51:13;100205.41;;;14.25;100.00
21779;BME280;11050;52.222;20.916;2022-10-23T03:53:38;100206.81;;;14.28;100.00
21779;BME280;11050;52.222;20.916;2022-10-23T03:56:04;100208.47;;;14.19;100.00
21779;BME280;11050;52.222;20.916;2022-10-23T03:58:30;100215.41;;;14.21;100.00
21779;BME280;11050;52.222;20.916;2022-10-23T04:00:57;100206.00;;;14.12;100.00
21779;BME280;11050;52.222;20.916;2022-10-23T04:03:23;100217.59;;;14.19;100.00
21779;BME280;11050;52.222;20.916;2022-10-23T04:05:48;100232.22;;;14.20;100.00
21779;BME280;11050;52.222;20.916;2022-10-23T04:08:14;100231.69;;;14.23;100.00
21779;BME280;11050;52.222;20.916;2022-10-23T04:10:40;100242.19;;;14.21;100.00
21779;BME280;11050;52.222;20.916;2022-10-23T04:13:06;100246.88;;;14.25;100.00
21779;BME280;11050;52.222;20.916;2022-10-23T04:15:31;100242.75;;;14.23;100.00
21779;BME280;11050;52.222;20.916;2022-10-23T04:17:57;100251.03;;;14.18;100.00
21779;BME280;11050;52.222;20.916;2022-10-23T04:20:23;100248.56;;;14.16;100.00
21779;BME280;11050;52.222;20.916;2022-10-23T04:22:48;100247.72;;;14.16;100.00
21779;BME280;11050;52.222;20.916;2022-10-23T04:25:14;100248.00;;;14.14;100.00
21779;BME280;11050;52.222;20.916;2022-10-23T04:27:41;100237.50;;;14.11;100.00
21779;BME280;11050;52.222;20.916;2022-10-23T04:30:07;100259.63;;;14.11;100.00
21779;BME280;11050;52.222;20.916;2022-10-23T04:32:33;100245.53;;;14.08;100.00
21779;BME280;11050;52.222;20.916;2022-10-23T04:34:59;100247.72;;;14.01;100.00
21779;BME280;11050;52.222;20.916;2022-10-23T04:37:25;100256.31;;;13.99;100.00
21779;BME280;11050;52.222;20.916;2022-10-23T04:39:52;100257.97;;;13.95;100.00
21779;BME280;11050;52.222;20.916;2022-10-23T04:42:18;100251.06;;;13.88;100.00
21779;BME280;11050;52.222;20.916;2022-10-23T04:44:44;100257.13;;;13.90;100.00
21779;BME280;11050;52.222;20.916;2022-10-23T04:47:10;100259.91;;;13.90;100.00
21779;BME280;11050;52.222;20.916;2022-10-23T04:49:36;100259.91;;;13.90;100.00
21779;BME280;11050;52.222;20.916;2022-10-23T04:52:01;100266.56;;;13.84;100.00
21779;BME280;11050;52.222;20.916;2022-10-23T04:54:27;100277.59;;;13.89;100.00
21779;BME280;11050;52.222;20.916;2022-10-23T04:56:53;100269.84;;;13.86;100.00
21779;BME280;11050;52.222;20.916;2022-10-23T04:59:19;100271.78;;;13.85;100.00
21779;BME280;11050;52.222;20.916;2022-10-23T05:01:45;100266.56;;;13.84;100.00
21779;BME280;11050;52.222;20.916;2022-10-23T05:04:10;100272.09;;;13.84;100.00
21779;BME280;11050;52.222;20.916;2022-10-23T05:06:38;100273.44;;;13.86;100.00
21779;BME280;11050;52.222;20.916;2022-10-23T05:09:03;100267.34;;;13.84;100.00
21779;BME280;11050;52.222;20.916;2022-10-23T05:11:29;100279.81;;;13.82;100.00
21779;BME280;11050;52.222;20.916;2022-10-23T05:13:55;100270.13;;;13.79;100.00
21779;BME280;11050;52.222;20.916;2022-10-23T05:17:30;100273.72;;;13.80;100.00
21779;BME280;11050;52.222;20.916;2022-10-23T05:19:43;100275.38;;;13.76;100.00
21779;BME280;11050;52.222;20.916;2022-10-23T05:22:12;100273.47;;;13.76;100.00
21779;BME280;11050;52.222;20.916;2022-10-23T05:24:39;100283.66;;;13.81;100.00
21779;BME280;11050;52.222;20.916;2022-10-23T05:27:05;100279.50;;;13.78;100.00
21779;BME280;11050;52.222;20.916;2022-10-23T05:29:31;100277.88;;;13.77;100.00
21779;BME280;11050;52.222;20.916;2022-10-23T05:32:01;100287.28;;;13.76;100.00
21779;BME280;11050;52.222;20.916;2022-10-23T05:34:29;100288.06;;;13.77;100.00
21779;BME280;11050;52.222;20.916;2022-10-23T05:36:56;100278.69;;;13.78;100.00
21779;BME280;11050;52.222;20.916;2022-10-23T05:39:22;100288.06;;;13.77;100.00
21779;BME280;11050;52.222;20.916;2022-10-23T05:41:48;100301.34;;;13.80;100.00
21779;BME280;11050;52.222;20.916;2022-10-23T05:44:14;100297.47;;;13.76;100.00
21779;BME280;11050;52.222;20.916;2022-10-23T05:46:43;100295.28;;;13.78;100.00
21779;BME280;11050;52.222;20.916;2022-10-23T05:49:09;100296.91;;;13.79;100.00
21779;BME280;11050;52.222;20.916;2022-10-23T05:51:36;100305.47;;;13.82;100.00
21779;BME280;11050;52.222;20.916;2022-10-23T05:54:03;100299.97;;;13.77;100.00
21779;BME280;11050;52.222;20.916;2022-10-23T05:56:33;100290.84;;;13.72;100.00
21779;BME280;11050;52.222;20.916;2022-10-23T05:58:58;100300.81;;;13.78;100.00
21779;BME280;11050;52.222;20.916;2022-10-23T06:01:24;100301.59;;;13.78;100.00
21779;BME280;11050;52.222;20.916;2022-10-23T06:03:50;100297.47;;;13.76;100.00
21779;BME280;11050;52.222;20.916;2022-10-23T06:06:16;100301.31;;;13.75;100.00
21779;BME280;11050;52.222;20.916;2022-10-23T06:08:41;100300.78;;;13.68;100.00
21779;BME280;11050;52.222;20.916;2022-10-23T06:11:13;100302.97;;;13.66;100.00
21779;BME280;11050;52.222;20.916;2022-10-23T06:13:42;100306.56;;;13.71;100.00
21779;BME280;11050;52.222;20.916;2022-10-23T06:16:10;100313.78;;;13.77;100.00
21779;BME280;11050;52.222;20.916;2022-10-23T06:18:36;100312.41;;;13.80;100.00
21779;BME280;11050;52.222;20.916;2022-10-23T06:21:02;100313.50;;;13.79;100.00
21779;BME280;11050;52.222;20.916;2022-10-23T06:23:34;100321.50;;;13.80;100.00
21779;BME280;11050;52.222;20.916;2022-10-23T06:26:00;100316.25;;;13.74;100.00
21779;BME280;11050;52.222;20.916;2022-10-23T06:28:27;100320.94;;;13.73;100.00
21779;BME280;11050;52.222;20.916;2022-10-23T06:30:52;100316.22;;;13.64;100.00
21779;BME280;11050;52.222;20.916;2022-10-23T06:33:18;100323.69;;;13.63;100.00
21779;BME280;11050;52.222;20.916;2022-10-23T06:35:44;100320.91;;;13.58;100.00
21779;BME280;11050;52.222;20.916;2022-10-23T06:38:10;100320.91;;;13.53;100.00
21779;BME280;11050;52.222;20.916;2022-10-23T06:40:37;100325.59;;;13.48;100.00
21779;BME280;11050;52.222;20.916;2022-10-23T06:43:04;100326.72;;;13.52;100.00
21779;BME280;11050;52.222;20.916;2022-10-23T06:45:32;100333.03;;;13.52;100.00
21779;BME280;11050;52.222;20.916;2022-10-23T06:47:59;100332.53;;;13.60;100.00
21779;BME280;11050;52.222;20.916;2022-10-23T06:50:26;100336.69;;;13.73;100.00
21779;BME280;11050;52.222;20.916;2022-10-23T06:52:53;100348.31;;;13.80;100.00
21779;BME280;11050;52.222;20.916;2022-10-23T06:55:19;100347.19;;;13.86;100.00
21779;BME280;11050;52.222;20.916;2022-10-23T06:57:45;100347.19;;;13.86;100.00
21779;BME280;11050;52.222;20.916;2022-10-23T07:00:11;100357.19;;;13.97;100.00
21779;BME280;11050;52.222;20.916;2022-10-23T07:02:37;100345.56;;;14.00;100.00
21779;BME280;11050;52.222;20.916;2022-10-23T07:05:03;100350.56;;;14.08;100.00
21779;BME280;11050;52.222;20.916;2022-10-23T07:07:30;100345.59;;;14.10;100.00
21779;BME280;11050;52.222;20.916;2022-10-23T07:09:56;100344.44;;;14.16;100.00
21779;BME280;11050;52.222;20.916;2022-10-23T07:12:22;100341.69;;;14.16;100.00
21779;BME280;11050;52.222;20.916;2022-10-23T07:14:48;100348.06;;;14.26;100.00
21779;BME280;11050;52.222;20.916;2022-10-23T07:17:13;100347.53;;;14.30;100.00
21779;BME280;11050;52.222;20.916;2022-10-23T07:19:39;100345.03;;;14.33;100.00
21779;BME280;11050;52.222;20.916;2022-10-23T07:22:05;100352.25;;;14.44;100.00
21779;BME280;11050;52.222;20.916;2022-10-23T07:24:31;100346.41;;;14.51;100.00
21779;BME280;11050;52.222;20.916;2022-10-23T07:27:04;100355.50;;;14.61;100.00
21779;BME280;11050;52.222;20.916;2022-10-23T07:29:31;100346.38;;;14.56;100.00
21779;BME280;11050;52.222;20.916;2022-10-23T07:31:58;100345.56;;;14.60;100.00
21779;BME280;11050;52.222;20.916;2022-10-23T07:34:26;100352.22;;;14.59;100.00
21779;BME280;11050;52.222;20.916;2022-10-23T07:36:52;100341.16;;;14.59;100.00
21779;BME280;11050;52.222;20.916;2022-10-23T07:39:20;100343.88;;;14.74;100.00
21779;BME280;11050;52.222;20.916;2022-10-23T07:41:47;100338.56;;;14.88;100.00
21779;BME280;11050;52.222;20.916;2022-10-23T07:44:13;100341.84;;;15.05;100.00
21779;BME280;11050;52.222;20.916;2022-10-23T07:46:39;100334.91;;;15.17;100.00
21779;BME280;11050;52.222;20.916;2022-10-23T07:49:05;100329.31;;;15.23;100.00
21779;BME280;11050;52.222;20.916;2022-10-23T07:51:31;100331.25;;;15.27;100.00
21779;BME280;11050;52.222;20.916;2022-10-23T07:53:56;100336.19;;;15.35;100.00
21779;BME280;11050;52.222;20.916;2022-10-23T07:56:25;100340.28;;;15.53;100.00
21779;BME280;11050;52.222;20.916;2022-10-23T07:58:54;100331.84;;;15.73;100.00
21779;BME280;11050;52.222;20.916;2022-10-23T08:03:52;100336.13;;;15.94;100.00
21779;BME280;11050;52.222;20.916;2022-10-23T08:06:17;100326.97;;;15.93;100.00
21779;BME280;11050;52.222;20.916;2022-10-23T08:08:43;100334.16;;;15.99;100.00
21779;BME280;11050;52.222;20.916;2022-10-23T08:11:12;100343.78;;;16.07;100.00
21779;BME280;11050;52.222;20.916;2022-10-23T08:13:39;100329.91;;;16.12;100.00
21779;BME280;11050;52.222;20.916;2022-10-23T08:16:05;100327.88;;;16.23;100.00
21779;BME280;11050;52.222;20.916;2022-10-23T08:18:32;100339.19;;;16.26;100.00
21779;BME280;11050;52.222;20.916;2022-10-23T08:21:02;100334.19;;;16.28;100.00
21779;BME280;11050;52.222;20.916;2022-10-23T08:23:29;100343.06;;;16.30;100.00
21779;BME280;11050;52.222;20.916;2022-10-23T08:26:06;100344.25;;;16.19;100.00
21779;BME280;11050;52.222;20.916;2022-10-23T08:28:32;100347.06;;;16.14;100.00
21779;BME280;11050;52.222;20.916;2022-10-23T08:31:05;100354.59;;;16.08;100.00
21779;BME280;11050;52.222;20.916;2022-10-23T08:33:31;100347.66;;;16.11;100.00
21779;BME280;11050;52.222;20.916;2022-10-23T08:35:57;100353.19;;;16.11;100.00
21779;BME280;11050;52.222;20.916;2022-10-23T08:38:23;100350.38;;;16.16;100.00
21779;BME280;11050;52.222;20.916;2022-10-23T08:40:49;100361.16;;;16.23;100.00
21779;BME280;11050;52.222;20.916;2022-10-23T08:43:34;100361.94;;;16.28;100.00
21779;BME280;11050;52.222;20.916;2022-10-23T08:46:11;100353.53;;;16.38;100.00
21779;BME280;11050;52.222;20.916;2022-10-23T08:48:51;100360.22;;;16.66;100.00
21779;BME280;11050;52.222;20.916;2022-10-23T08:51:44;100361.72;;;16.82;100.00
21779;BME280;11050;52.222;20.916;2022-10-23T08:54:46;100358.75;;;17.02;100.00
21779;BME280;11050;52.222;20.916;2022-10-23T08:57:16;100356.19;;;17.05;100.00
21779;BME280;11050;52.222;20.916;2022-10-23T08:59:56;100359.63;;;16.97;100.00
21779;BME280;11050;52.222;20.916;2022-10-23T09:02:42;100367.47;;;16.90;100.00
21779;BME280;11050;52.222;20.916;2022-10-23T09:14:04;100349.69;;;16.91;100.00
21779;BME280;11050;52.222;20.916;2022-10-23T09:19:44;100356.84;;;16.97;100.00
21779;BME280;11050;52.222;20.916;2022-10-23T09:22:11;100348.16;;;17.04;100.00
21779;BME280;11050;52.222;20.916;2022-10-23T09:24:42;100351.94;;;17.13;100.00
21779;BME280;11050;52.222;20.916;2022-10-23T09:27:14;100352.09;;;17.22;100.00
21779;BME280;11050;52.222;20.916;2022-10-23T09:29:53;100374.75;;;17.34;100.00
21779;BME280;11050;52.222;20.916;2022-10-23T09:32:32;100374.41;;;17.17;100.00
21779;BME280;11050;52.222;20.916;2022-10-23T09:34:58;100383.72;;;17.02;100.00
21779;BME280;11050;52.222;20.916;2022-10-23T09:37:31;100381.25;;;17.00;100.00
21779;BME280;11050;52.222;20.916;2022-10-23T09:40:26;100384.59;;;16.97;100.00
21779;BME280;11050;52.222;20.916;2022-10-23T09:43:14;100384.25;;;17.04;100.00
21779;BME280;11050;52.222;20.916;2022-10-23T09:45:40;100380.06;;;17.06;100.00
21779;BME280;11050;52.222;20.916;2022-10-23T09:50:59;100363.19;;;17.27;100.00
21779;BME280;11050;52.222;20.916;2022-10-23T09:53:39;100366.09;;;17.35;100.00
21779;BME280;11050;52.222;20.916;2022-10-23T09:56:34;100376.69;;;17.33;100.00
21779;BME280;11050;52.222;20.916;2022-10-23T09:59:05;100367.81;;;17.31;100.00
21779;BME280;11050;52.222;20.916;2022-10-23T10:01:53;100366.75;;;17.27;100.00
21779;BME280;11050;52.222;20.916;2022-10-23T10:04:40;100364.81;;;17.28;100.00
21779;BME280;11050;52.222;20.916;2022-10-23T10:07:22;100369.84;;;17.26;100.00
21779;BME280;11050;52.222;20.916;2022-10-23T10:09:48;100349.63;;;17.20;100.00
21779;BME280;11050;52.222;20.916;2022-10-23T10:15:22;100362.19;;;17.18;100.00
21779;BME280;11050;52.222;20.916;2022-10-23T10:18:27;100363.47;;;17.25;100.00
21779;BME280;11050;52.222;20.916;2022-10-23T10:21:27;100360.44;;;17.22;100.00
21779;BME280;11050;52.222;20.916;2022-10-23T10:23:58;100364.44;;;17.16;100.00
21779;BME280;11050;52.222;20.916;2022-10-23T10:27:10;100365.06;;;17.08;100.00
21779;BME280;11050;52.222;20.916;2022-10-23T10:29:43;100365.69;;;16.99;100.00
21779;BME280;11050;52.222;20.916;2022-10-23T10:32:53;100373.25;;;16.94;100.00
21779;BME280;11050;52.222;20.916;2022-10-23T10:35:39;100374.66;;;16.91;100.00
21779;BME280;11050;52.222;20.916;2022-10-23T10:38:41;100370.56;;;16.89;100.00
21779;BME280;11050;52.222;20.916;2022-10-23T10:44:52;100363.75;;;17.00;100.00
21779;BME280;11050;52.222;20.916;2022-10-23T10:50:17;100351.88;;;17.18;100.00
21779;BME280;11050;52.222;20.916;2022-10-23T10:55:42;100350.22;;;16.93;100.00
21779;BME280;11050;52.222;20.916;2022-10-23T11:01:34;100358.16;;;16.76;100.00
21779;BME280;11050;52.222;20.916;2022-10-23T11:06:51;100358.22;;;16.71;100.00
21779;BME280;11050;52.222;20.916;2022-10-23T11:09:28;100351.84;;;16.71;100.00
21779;BME280;11050;52.222;20.916;2022-10-23T11:11:55;100358.78;;;16.73;100.00
21779;BME280;11050;52.222;20.916;2022-10-23T11:14:24;100362.13;;;16.70;100.00
21779;BME280;11050;52.222;20.916;2022-10-23T11:17:01;100360.16;;;16.71;100.00
21779;BME280;11050;52.222;20.916;2022-10-23T11:19:48;100355.75;;;16.70;100.00
21779;BME280;11050;52.222;20.916;2022-10-23T11:36:44;100344.22;;;17.10;100.00
21779;BME280;11050;52.222;20.916;2022-10-23T11:39:30;100333.56;;;17.17;100.00
21779;BME280;11050;52.222;20.916;2022-10-23T11:42:11;100339.44;;;17.16;100.00
21779;BME280;11050;52.222;20.916;2022-10-23T11:44:39;100327.06;;;17.27;100.00
21779;BME280;11050;52.222;20.916;2022-10-23T11:47:36;100316.72;;;17.32;100.00
21779;BME280;11050;52.222;20.916;2022-10-23T11:52:55;100329.69;;;17.37;100.00
21779;BME280;11050;52.222;20.916;2022-10-23T11:55:29;100323.56;;;17.40;100.00
21779;BME280;11050;52.222;20.916;2022-10-23T11:58:24;100316.75;;;17.51;100.00
21779;BME280;11050;52.222;20.916;2022-10-23T12:01:04;100315.66;;;17.70;100.00
21779;BME280;11050;52.222;20.916;2022-10-23T12:06:43;100318.94;;;17.72;100.00
21779;BME280;11050;52.222;20.916;2022-10-23T12:17:00;100310.69;;;17.67;100.00
21779;BME280;11050;52.222;20.916;2022-10-23T12:19:30;100303.09;;;17.73;100.00
21779;BME280;11050;52.222;20.916;2022-10-23T12:22:10;100280.91;;;17.86;100.00
21779;BME280;11050;52.222;20.916;2022-10-23T12:27:33;100304.81;;;18.06;100.00
21779;BME280;11050;52.222;20.916;2022-10-23T12:30:22;100303.72;;;18.21;100.00
21779;BME280;11050;52.222;20.916;2022-10-23T12:33:10;100308.28;;;18.30;100.00
21779;BME280;11050;52.222;20.916;2022-10-23T12:38:29;100318.16;;;18.55;100.00
21779;BME280;11050;52.222;20.916;2022-10-23T12:41:09;100320.03;;;18.41;100.00
21779;BME280;11050;52.222;20.916;2022-10-23T12:43:37;100315.94;;;18.20;100.00
21779;BME280;11050;52.222;20.916;2022-10-23T12:46:26;100320.44;;;18.02;100.00
21779;BME280;11050;52.222;20.916;2022-10-23T12:48:55;100307.88;;;17.86;100.00
21779;BME280;11050;52.222;20.916;2022-10-23T12:51:25;100313.66;;;17.89;100.00
21779;BME280;11050;52.222;20.916;2022-10-23T12:53:52;100323.25;;;17.83;100.00
21779;BME280;11050;52.222;20.916;2022-10-23T12:56:18;100318.25;;;17.80;100.00
21779;BME280;11050;52.222;20.916;2022-10-23T12:58:57;100325.75;;;17.80;100.00
21779;BME280;11050;52.222;20.916;2022-10-23T13:01:33;100324.50;;;17.72;100.00
21779;BME280;11050;52.222;20.916;2022-10-23T13:04:31;100326.69;;;17.57;100.00
21779;BME280;11050;52.222;20.916;2022-10-23T13:07:02;100326.50;;;17.48;100.00
21779;BME280;11050;52.222;20.916;2022-10-23T13:09:41;100327.09;;;17.45;100.00
21779;BME280;11050;52.222;20.916;2022-10-23T13:12:17;100327.66;;;17.42;100.00
21779;BME280;11050;52.222;20.916;2022-10-23T13:20:22;100327.88;;;17.27;100.00
21779;BME280;11050;52.222;20.916;2022-10-23T13:23:07;100325.34;;;17.31;100.00
21779;BME280;11050;52.222;20.916;2022-10-23T13:25:36;100333.94;;;17.29;100.00
21779;BME280;11050;52.222;20.916;2022-10-23T13:28:24;100335.41;;;17.27;100.00
21779;BME280;11050;52.222;20.916;2022-10-23T13:31:05;100324.31;;;17.22;100.00
21779;BME280;11050;52.222;20.916;2022-10-23T13:33:39;100324.72;;;17.15;100.00
21779;BME280;11050;52.222;20.916;2022-10-23T13:41:39;100321.28;;;16.99;100.00
21779;BME280;11050;52.222;20.916;2022-10-23T13:44:06;100311.66;;;16.92;100.00
21779;BME280;11050;52.222;20.916;2022-10-23T13:46:33;100318.59;;;16.89;100.00
21779;BME280;11050;52.222;20.916;2022-10-23T13:48:59;100322.22;;;16.90;100.00
21779;BME280;11050;52.222;20.916;2022-10-23T13:51:28;100322.59;;;16.83;100.00
21779;BME280;11050;52.222;20.916;2022-10-23T13:53:56;100329.44;;;16.91;100.00
21779;BME280;11050;52.222;20.916;2022-10-23T13:56:25;100326.44;;;16.87;100.00
21779;BME280;11050;52.222;20.916;2022-10-23T13:58:51;100318.38;;;16.86;100.00
21779;BME280;11050;52.222;20.916;2022-10-23T14:01:28;100329.44;;;16.91;100.00
21779;BME280;11050;52.222;20.916;2022-10-23T14:03:57;100325.53;;;16.92;100.00
21779;BME280;11050;52.222;20.916;2022-10-23T14:06:23;100312.78;;;16.91;100.00
21779;BME280;11050;52.222;20.916;2022-10-23T14:08:49;100308.03;;;16.91;100.00
21779;BME280;11050;52.222;20.916;2022-10-23T14:11:17;100311.94;;;16.90;100.00
21779;BME280;11050;52.222;20.916;2022-10-23T14:13:44;100301.94;;;16.89;100.00
21779;BME280;11050;52.222;20.916;2022-10-23T14:16:16;100306.31;;;16.95;100.00
21779;BME280;11050;52.222;20.916;2022-10-23T14:18:43;100309.72;;;16.92;100.00
21779;BME280;11050;52.222;20.916;2022-10-23T14:21:13;100310.00;;;16.91;100.00
21779;BME280;11050;52.222;20.916;2022-10-23T14:23:39;100310.13;;;16.81;100.00
21779;BME280;11050;52.222;20.916;2022-10-23T14:26:08;100318.78;;;16.74;100.00
21779;BME280;11050;52.222;20.916;2022-10-23T14:28:35;100324.38;;;16.69;100.00
21779;BME280;11050;52.222;20.916;2022-10-23T14:31:12;100317.84;;;16.60;100.00
21779;BME280;11050;52.222;20.916;2022-10-23T14:33:38;100318.44;;;16.57;100.00
21779;BME280;11050;52.222;20.916;2022-10-23T14:36:05;100329.53;;;16.57;100.00
21779;BME280;11050;52.222;20.916;2022-10-23T14:38:31;100342.34;;;16.48;100.00
21779;BME280;11050;52.222;20.916;2022-10-23T14:40:57;100332.66;;;16.46;100.00
21779;BME280;11050;52.222;20.916;2022-10-23T14:43:23;100326.34;;;16.35;100.00